sensor_id;sensor_type;location;lat;lon;timestamp;temperature;humidity
3790;DHT22;1910;49.042;9.028;2022-07-29T00:03:12;20.30;99.90
3790;DHT22;1910;49.042;9.028;2022-07-29T00:05:39;20.20;99.90
3790;DHT22;1910;49.042;9.028;2022-07-29T00:22:41;20.20;99.90
3790;DHT22;1910;49.042;9.028;2022-07-29T00:25:07;22.40;99.90
3790;DHT22;1910;49.042;9.028;2022-07-29T00:34:51;20.10;99.90
3790;DHT22;1910;49.042;9.028;2022-07-29T00:37:35;20.00;99.90
3790;DHT22;1910;49.042;9.028;2022-07-29T00:42:27;20.00;99.90
3790;DHT22;1910;49.042;9.028;2022-07-29T00:44:52;20.20;99.90
3790;DHT22;1910;49.042;9.028;2022-07-29T00:52:13;19.90;99.90
3790;DHT22;1910;49.042;9.028;2022-07-29T00:54:40;19.90;99.90
3790;DHT22;1910;49.042;9.028;2022-07-29T00:57:07;19.90;99.90
3790;DHT22;1910;49.042;9.028;2022-07-29T01:09:19;19.90;99.90
3790;DHT22;1910;49.042;9.028;2022-07-29T01:11:46;19.80;99.90
3790;DHT22;1910;49.042;9.028;2022-07-29T01:16:51;19.80;99.90
3790;DHT22;1910;49.042;9.028;2022-07-29T01:25:38;19.40;99.90
3790;DHT22;1910;49.042;9.028;2022-07-29T01:30:56;17.70;99.90
3790;DHT22;1910;49.042;9.028;2022-07-29T01:33:24;19.10;99.90
3790;DHT22;1910;49.042;9.028;2022-07-29T01:36:13;21.90;99.90
3790;DHT22;1910;49.042;9.028;2022-07-29T01:38:42;19.00;99.90
3790;DHT22;1910;49.042;9.028;2022-07-29T01:41:15;18.90;99.90
3790;DHT22;1910;49.042;9.028;2022-07-29T01:43:51;18.90;99.90
3790;DHT22;1910;49.042;9.028;2022-07-29T01:46:24;18.90;99.90
3790;DHT22;1910;49.042;9.028;2022-07-29T01:48:56;20.70;99.90
3790;DHT22;1910;49.042;9.028;2022-07-29T01:51:33;16.50;99.90
3790;DHT22;1910;49.042;9.028;2022-07-29T01:54:49;19.70;99.90
3790;DHT22;1910;49.042;9.028;2022-07-29T01:57:21;18.80;99.90
3790;DHT22;1910;49.042;9.028;2022-07-29T01:59:49;19.80;99.90
3790;DHT22;1910;49.042;9.028;2022-07-29T02:02:18;18.60;99.90
3790;DHT22;1910;49.042;9.028;2022-07-29T02:04:47;18.60;99.90
3790;DHT22;1910;49.042;9.028;2022-07-29T02:07:18;18.50;99.90
3790;DHT22;1910;49.042;9.028;2022-07-29T02:09:45;18.40;99.90
3790;DHT22;1910;49.042;9.028;2022-07-29T02:12:13;20.40;99.90
3790;DHT22;1910;49.042;9.028;2022-07-29T02:14:47;18.20;99.90
3790;DHT22;1910;49.042;9.028;2022-07-29T02:17:13;18.10;99.90
3790;DHT22;1910;49.042;9.028;2022-07-29T02:19:43;18.20;99.90
3790;DHT22;1910;49.042;9.028;2022-07-29T02:22:11;18.20;99.90
3790;DHT22;1910;49.042;9.028;2022-07-29T02:24:38;18.30;99.90
3790;DHT22;1910;49.042;9.028;2022-07-29T02:27:07;18.30;99.90
3790;DHT22;1910;49.042;9.028;2022-07-29T02:29:34;18.20;99.90
3790;DHT22;1910;49.042;9.028;2022-07-29T02:32:02;19.00;99.90
3790;DHT22;1910;49.042;9.028;2022-07-29T02:36:55;18.10;99.90
3790;DHT22;1910;49.042;9.028;2022-07-29T02:39:23;20.30;99.90
3790;DHT22;1910;49.042;9.028;2022-07-29T02:41:58;18.20;99.90
3790;DHT22;1910;49.042;9.028;2022-07-29T02:44:26;18.10;99.90
3790;DHT22;1910;49.042;9.028;2022-07-29T02:47:04;20.20;99.90
3790;DHT22;1910;49.042;9.028;2022-07-29T02:52:54;17.70;99.90
3790;DHT22;1910;49.042;9.028;2022-07-29T02:55:46;17.60;99.90
3790;DHT22;1910;49.042;9.028;2022-07-29T02:58:30;17.40;99.90
3790;DHT22;1910;49.042;9.028;2022-07-29T03:01:01;17.10;99.90
3790;DHT22;1910;49.042;9.028;2022-07-29T03:03:30;16.90;99.90
3790;DHT22;1910;49.042;9.028;2022-07-29T03:05:58;16.90;99.90
3790;DHT22;1910;49.042;9.028;2022-07-29T03:08:27;17.00;99.90
3790;DHT22;1910;49.042;9.028;2022-07-29T03:13:20;17.10;99.90
3790;DHT22;1910;49.042;9.028;2022-07-29T03:15:47;17.20;99.90
3790;DHT22;1910;49.042;9.028;2022-07-29T03:18:13;17.20;99.90
3790;DHT22;1910;49.042;9.028;2022-07-29T03:27:58;17.10;99.90
3790;DHT22;1910;49.042;9.028;2022-07-29T03:38:04;16.80;99.90
3790;DHT22;1910;49.042;9.028;2022-07-29T03:41:09;16.70;99.90
3790;DHT22;1910;49.042;9.028;2022-07-29T03:44:00;16.70;99.90
3790;DHT22;1910;49.042;9.028;2022-07-29T03:46:45;16.90;99.90
3790;DHT22;1910;49.042;9.028;2022-07-29T03:49:18;16.60;99.90
3790;DHT22;1910;49.042;9.028;2022-07-29T03:56:44;16.90;99.90
3790;DHT22;1910;49.042;9.028;2022-07-29T03:59:19;17.00;99.90
3790;DHT22;1910;49.042;9.028;2022-07-29T04:06:43;17.10;99.90
3790;DHT22;1910;49.042;9.028;2022-07-29T04:16:47;16.90;99.90
3790;DHT22;1910;49.042;9.028;2022-07-29T04:24:15;17.00;99.90
3790;DHT22;1910;49.042;9.028;2022-07-29T04:26:42;17.10;99.90
3790;DHT22;1910;49.042;9.028;2022-07-29T04:34:13;18.00;99.90
3790;DHT22;1910;49.042;9.028;2022-07-29T04:36:52;18.30;99.90
3790;DHT22;1910;49.042;9.028;2022-07-29T04:39:25;18.90;99.90
3790;DHT22;1910;49.042;9.028;2022-07-29T04:41:59;21.80;99.90
3790;DHT22;1910;49.042;9.028;2022-07-29T04:44:27;20.30;99.90
3790;DHT22;1910;49.042;9.028;2022-07-29T04:46:56;20.90;99.90
3790;DHT22;1910;49.042;9.028;2022-07-29T04:51:53;21.00;99.90
3790;DHT22;1910;49.042;9.028;2022-07-29T04:54:24;21.00;99.90
3790;DHT22;1910;49.042;9.028;2022-07-29T04:56:55;20.90;99.90
3790;DHT22;1910;49.042;9.028;2022-07-29T05:02:00;19.80;99.90
3790;DHT22;1910;49.042;9.028;2022-07-29T05:09:34;18.60;99.90
3790;DHT22;1910;49.042;9.028;2022-07-29T05:14:27;18.70;99.90
3790;DHT22;1910;49.042;9.028;2022-07-29T05:17:02;18.80;99.90
3790;DHT22;1910;49.042;9.028;2022-07-29T05:29:38;25.80;99.90
3790;DHT22;1910;49.042;9.028;2022-07-29T05:34:33;29.70;99.90
3790;DHT22;1910;49.042;9.028;2022-07-29T05:37:26;31.10;99.90
3790;DHT22;1910;49.042;9.028;2022-07-29T05:40:18;32.10;99.90
3790;DHT22;1910;49.042;9.028;2022-07-29T05:42:54;33.10;99.00
3790;DHT22;1910;49.042;9.028;2022-07-29T05:48:31;33.10;93.40
3790;DHT22;1910;49.042;9.028;2022-07-29T05:51:00;34.00;93.20
3790;DHT22;1910;49.042;9.028;2022-07-29T05:53:43;33.90;90.00
3790;DHT22;1910;49.042;9.028;2022-07-29T05:56:19;32.60;91.10
3790;DHT22;1910;49.042;9.028;2022-07-29T05:58:56;31.30;92.60
3790;DHT22;1910;49.042;9.028;2022-07-29T06:01:34;30.70;93.90
3790;DHT22;1910;49.042;9.028;2022-07-29T06:04:23;29.50;95.60
3790;DHT22;1910;49.042;9.028;2022-07-29T06:07:00;29.20;97.80
3790;DHT22;1910;49.042;9.028;2022-07-29T06:09:49;28.20;99.90
3790;DHT22;1910;49.042;9.028;2022-07-29T06:12:20;28.50;99.90
3790;DHT22;1910;49.042;9.028;2022-07-29T06:15:13;29.60;99.90
3790;DHT22;1910;49.042;9.028;2022-07-29T06:23:26;31.00;96.20
3790;DHT22;1910;49.042;9.028;2022-07-29T06:25:56;31.50;96.10
3790;DHT22;1910;49.042;9.028;2022-07-29T06:46:34;34.00;91.40
3790;DHT22;1910;49.042;9.028;2022-07-29T06:49:00;34.70;87.10
3790;DHT22;1910;49.042;9.028;2022-07-29T06:51:27;35.40;85.70
3790;DHT22;1910;49.042;9.028;2022-07-29T06:53:52;35.40;83.10
3790;DHT22;1910;49.042;9.028;2022-07-29T06:56:18;35.20;81.50
3790;DHT22;1910;49.042;9.028;2022-07-29T06:58:44;35.10;80.80
3790;DHT22;1910;49.042;9.028;2022-07-29T07:01:09;36.20;80.30
3790;DHT22;1910;49.042;9.028;2022-07-29T07:06:01;38.00;71.00
3790;DHT22;1910;49.042;9.028;2022-07-29T07:08:26;38.20;69.30
3790;DHT22;1910;49.042;9.028;2022-07-29T07:10:52;37.60;66.30
3790;DHT22;1910;49.042;9.028;2022-07-29T07:13:19;35.80;69.00
3790;DHT22;1910;49.042;9.028;2022-07-29T07:15:45;35.00;74.90
3790;DHT22;1910;49.042;9.028;2022-07-29T07:18:13;37.00;69.90
3790;DHT22;1910;49.042;9.028;2022-07-29T07:20:39;37.10;70.30
3790;DHT22;1910;49.042;9.028;2022-07-29T07:23:04;36.60;67.30
3790;DHT22;1910;49.042;9.028;2022-07-29T07:25:30;33.80;70.40
3790;DHT22;1910;49.042;9.028;2022-07-29T07:27:56;32.40;75.60
3790;DHT22;1910;49.042;9.028;2022-07-29T07:30:21;32.90;78.50
3790;DHT22;1910;49.042;9.028;2022-07-29T07:32:47;34.40;76.20
3790;DHT22;1910;49.042;9.028;2022-07-29T07:35:13;35.70;74.40
3790;DHT22;1910;49.042;9.028;2022-07-29T07:37:39;39.00;67.60
3790;DHT22;1910;49.042;9.028;2022-07-29T07:40:09;38.90;62.30
3790;DHT22;1910;49.042;9.028;2022-07-29T07:42:35;38.00;60.50
3790;DHT22;1910;49.042;9.028;2022-07-29T07:45:00;37.10;60.50
3790;DHT22;1910;49.042;9.028;2022-07-29T07:47:26;35.80;63.50
3790;DHT22;1910;49.042;9.028;2022-07-29T07:49:52;36.10;63.30
3790;DHT22;1910;49.042;9.028;2022-07-29T07:52:20;35.30;62.50
3790;DHT22;1910;49.042;9.028;2022-07-29T07:54:46;35.20;63.30
3790;DHT22;1910;49.042;9.028;2022-07-29T07:57:12;34.60;65.70
3790;DHT22;1910;49.042;9.028;2022-07-29T07:59:38;32.80;69.20
3790;DHT22;1910;49.042;9.028;2022-07-29T08:02:04;31.10;73.70
3790;DHT22;1910;49.042;9.028;2022-07-29T08:04:30;30.00;78.90
3790;DHT22;1910;49.042;9.028;2022-07-29T08:06:56;29.10;85.30
3790;DHT22;1910;49.042;9.028;2022-07-29T08:09:22;29.20;89.10
3790;DHT22;1910;49.042;9.028;2022-07-29T08:11:48;29.00;90.40
3790;DHT22;1910;49.042;9.028;2022-07-29T08:14:14;29.20;90.90
3790;DHT22;1910;49.042;9.028;2022-07-29T08:16:40;29.30;91.90
3790;DHT22;1910;49.042;9.028;2022-07-29T08:19:07;28.20;91.90
3790;DHT22;1910;49.042;9.028;2022-07-29T08:21:32;28.10;94.50
3790;DHT22;1910;49.042;9.028;2022-07-29T08:23:58;29.30;93.50
3790;DHT22;1910;49.042;9.028;2022-07-29T08:26:43;30.00;91.80
3790;DHT22;1910;49.042;9.028;2022-07-29T08:29:09;30.30;91.40
3790;DHT22;1910;49.042;9.028;2022-07-29T08:31:36;30.30;90.80
3790;DHT22;1910;49.042;9.028;2022-07-29T08:34:02;30.70;90.20
3790;DHT22;1910;49.042;9.028;2022-07-29T08:36:28;31.40;88.60
3790;DHT22;1910;49.042;9.028;2022-07-29T08:38:54;31.60;88.60
3790;DHT22;1910;49.042;9.028;2022-07-29T08:41:20;32.70;85.00
3790;DHT22;1910;49.042;9.028;2022-07-29T08:43:46;33.60;82.20
3790;DHT22;1910;49.042;9.028;2022-07-29T08:46:12;35.90;77.30
3790;DHT22;1910;49.042;9.028;2022-07-29T08:48:38;37.40;69.50
3790;DHT22;1910;49.042;9.028;2022-07-29T08:51:07;37.00;65.10
3790;DHT22;1910;49.042;9.028;2022-07-29T08:53:33;35.40;66.70
3790;DHT22;1910;49.042;9.028;2022-07-29T08:55:59;34.70;70.50
3790;DHT22;1910;49.042;9.028;2022-07-29T08:58:25;34.90;66.40
3790;DHT22;1910;49.042;9.028;2022-07-29T09:00:55;34.40;61.70
3790;DHT22;1910;49.042;9.028;2022-07-29T09:03:27;34.50;60.20
3790;DHT22;1910;49.042;9.028;2022-07-29T09:05:54;33.90;62.80
3790;DHT22;1910;49.042;9.028;2022-07-29T09:08:20;30.20;61.20
3790;DHT22;1910;49.042;9.028;2022-07-29T09:10:46;31.50;63.70
3790;DHT22;1910;49.042;9.028;2022-07-29T09:13:12;32.30;67.30
3790;DHT22;1910;49.042;9.028;2022-07-29T09:15:38;32.90;64.90
3790;DHT22;1910;49.042;9.028;2022-07-29T09:18:03;33.50;63.90
3790;DHT22;1910;49.042;9.028;2022-07-29T09:20:29;31.70;62.00
3790;DHT22;1910;49.042;9.028;2022-07-29T09:23:14;31.30;65.40
3790;DHT22;1910;49.042;9.028;2022-07-29T09:25:40;31.10;68.60
3790;DHT22;1910;49.042;9.028;2022-07-29T09:28:16;31.60;64.30
3790;DHT22;1910;49.042;9.028;2022-07-29T09:30:57;31.60;64.90
3790;DHT22;1910;49.042;9.028;2022-07-29T09:33:33;30.70;68.70
3790;DHT22;1910;49.042;9.028;2022-07-29T09:36:06;30.80;71.70
3790;DHT22;1910;49.042;9.028;2022-07-29T09:38:32;31.10;69.00
3790;DHT22;1910;49.042;9.028;2022-07-29T09:41:00;29.90;70.80
3790;DHT22;1910;49.042;9.028;2022-07-29T09:43:25;31.00;71.20
3790;DHT22;1910;49.042;9.028;2022-07-29T09:45:51;31.10;68.30
3790;DHT22;1910;49.042;9.028;2022-07-29T09:48:19;30.30;63.70
3790;DHT22;1910;49.042;9.028;2022-07-29T09:50:45;30.30;64.60
3790;DHT22;1910;49.042;9.028;2022-07-29T09:55:54;31.70;63.50
3790;DHT22;1910;49.042;9.028;2022-07-29T09:58:21;31.60;60.70
3790;DHT22;1910;49.042;9.028;2022-07-29T10:00:49;31.20;61.40
3790;DHT22;1910;49.042;9.028;2022-07-29T10:03:15;30.30;63.60
3790;DHT22;1910;49.042;9.028;2022-07-29T10:05:41;30.40;65.70
3790;DHT22;1910;49.042;9.028;2022-07-29T10:08:07;30.20;67.10
3790;DHT22;1910;49.042;9.028;2022-07-29T10:10:38;30.20;67.90
3790;DHT22;1910;49.042;9.028;2022-07-29T10:13:12;31.60;64.60
3790;DHT22;1910;49.042;9.028;2022-07-29T10:15:40;32.60;61.00
3790;DHT22;1910;49.042;9.028;2022-07-29T10:18:10;32.20;62.30
3790;DHT22;1910;49.042;9.028;2022-07-29T10:20:36;33.80;62.10
3790;DHT22;1910;49.042;9.028;2022-07-29T10:23:02;34.20;58.80
3790;DHT22;1910;49.042;9.028;2022-07-29T10:25:28;33.60;58.50
3790;DHT22;1910;49.042;9.028;2022-07-29T10:27:54;32.50;59.60
3790;DHT22;1910;49.042;9.028;2022-07-29T10:30:21;32.50;60.30
3790;DHT22;1910;49.042;9.028;2022-07-29T10:41:07;31.30;61.80
3790;DHT22;1910;49.042;9.028;2022-07-29T10:43:53;30.80;63.00
3790;DHT22;1910;49.042;9.028;2022-07-29T10:46:19;29.60;66.00
3790;DHT22;1910;49.042;9.028;2022-07-29T10:52:05;29.20;68.00
3790;DHT22;1910;49.042;9.028;2022-07-29T10:59:39;28.80;66.20
3790;DHT22;1910;49.042;9.028;2022-07-29T11:10:43;29.00;64.80
3790;DHT22;1910;49.042;9.028;2022-07-29T11:13:09;29.20;67.50
3790;DHT22;1910;49.042;9.028;2022-07-29T11:15:57;29.40;68.90
3790;DHT22;1910;49.042;9.028;2022-07-29T11:18:23;28.90;65.60
3790;DHT22;1910;49.042;9.028;2022-07-29T11:20:50;28.90;66.80
3790;DHT22;1910;49.042;9.028;2022-07-29T11:23:30;29.10;65.90
3790;DHT22;1910;49.042;9.028;2022-07-29T11:31:44;28.90;64.20
3790;DHT22;1910;49.042;9.028;2022-07-29T11:39:46;29.40;65.30
3790;DHT22;1910;49.042;9.028;2022-07-29T11:45:10;29.60;63.40
3790;DHT22;1910;49.042;9.028;2022-07-29T11:47:41;29.70;63.40
3790;DHT22;1910;49.042;9.028;2022-07-29T11:50:10;28.90;61.30
3790;DHT22;1910;49.042;9.028;2022-07-29T11:52:41;29.00;62.50
3790;DHT22;1910;49.042;9.028;2022-07-29T11:55:14;29.30;63.60
3790;DHT22;1910;49.042;9.028;2022-07-29T11:57:50;29.50;62.80
3790;DHT22;1910;49.042;9.028;2022-07-29T12:00:41;29.80;62.70
3790;DHT22;1910;49.042;9.028;2022-07-29T12:03:09;29.40;61.90
3790;DHT22;1910;49.042;9.028;2022-07-29T12:05:37;29.20;61.90
3790;DHT22;1910;49.042;9.028;2022-07-29T12:08:11;29.40;62.10
3790;DHT22;1910;49.042;9.028;2022-07-29T12:10:37;29.50;61.30
3790;DHT22;1910;49.042;9.028;2022-07-29T12:13:03;30.10;61.30
3790;DHT22;1910;49.042;9.028;2022-07-29T12:15:29;30.40;60.90
3790;DHT22;1910;49.042;9.028;2022-07-29T12:17:54;30.20;60.90
3790;DHT22;1910;49.042;9.028;2022-07-29T12:20:25;29.70;60.50
3790;DHT22;1910;49.042;9.028;2022-07-29T12:22:51;29.60;61.00
3790;DHT22;1910;49.042;9.028;2022-07-29T12:25:19;29.00;62.80
3790;DHT22;1910;49.042;9.028;2022-07-29T12:27:44;29.30;61.60
3790;DHT22;1910;49.042;9.028;2022-07-29T12:30:14;29.30;62.10
3790;DHT22;1910;49.042;9.028;2022-07-29T12:32:45;29.10;61.80
3790;DHT22;1910;49.042;9.028;2022-07-29T12:35:16;29.30;62.70
3790;DHT22;1910;49.042;9.028;2022-07-29T12:37:45;29.70;62.00
3790;DHT22;1910;49.042;9.028;2022-07-29T12:40:15;29.30;61.70
3790;DHT22;1910;49.042;9.028;2022-07-29T12:45:29;28.60;65.00
3790;DHT22;1910;49.042;9.028;2022-07-29T12:47:54;28.60;64.10
3790;DHT22;1910;49.042;9.028;2022-07-29T12:50:20;28.70;64.70
3790;DHT22;1910;49.042;9.028;2022-07-29T12:52:46;28.70;64.60
3790;DHT22;1910;49.042;9.028;2022-07-29T12:55:12;28.70;63.90
3790;DHT22;1910;49.042;9.028;2022-07-29T12:57:48;28.50;64.20
3790;DHT22;1910;49.042;9.028;2022-07-29T13:00:16;28.30;64.10
3790;DHT22;1910;49.042;9.028;2022-07-29T13:02:42;28.20;64.20
3790;DHT22;1910;49.042;9.028;2022-07-29T13:05:10;28.40;65.80
3790;DHT22;1910;49.042;9.028;2022-07-29T13:07:37;28.90;65.90
3790;DHT22;1910;49.042;9.028;2022-07-29T13:10:20;28.80;64.70
3790;DHT22;1910;49.042;9.028;2022-07-29T13:13:05;28.90;64.80
3790;DHT22;1910;49.042;9.028;2022-07-29T13:15:32;29.20;63.60
3790;DHT22;1910;49.042;9.028;2022-07-29T13:17:58;29.70;64.30
3790;DHT22;1910;49.042;9.028;2022-07-29T13:20:24;30.10;63.30
3790;DHT22;1910;49.042;9.028;2022-07-29T13:22:50;30.80;62.20
3790;DHT22;1910;49.042;9.028;2022-07-29T13:25:31;30.70;60.80
3790;DHT22;1910;49.042;9.028;2022-07-29T13:27:58;30.90;60.80
3790;DHT22;1910;49.042;9.028;2022-07-29T13:30:24;30.50;58.80
3790;DHT22;1910;49.042;9.028;2022-07-29T13:32:50;30.30;59.70
3790;DHT22;1910;49.042;9.028;2022-07-29T13:35:16;29.60;62.10
3790;DHT22;1910;49.042;9.028;2022-07-29T13:37:42;29.20;61.70
3790;DHT22;1910;49.042;9.028;2022-07-29T13:40:09;29.30;63.50
3790;DHT22;1910;49.042;9.028;2022-07-29T13:42:35;29.40;64.40
3790;DHT22;1910;49.042;9.028;2022-07-29T13:45:01;29.30;63.50
3790;DHT22;1910;49.042;9.028;2022-07-29T13:47:27;29.30;64.10
3790;DHT22;1910;49.042;9.028;2022-07-29T13:49:54;29.40;65.00
3790;DHT22;1910;49.042;9.028;2022-07-29T13:52:20;29.60;64.60
3790;DHT22;1910;49.042;9.028;2022-07-29T13:54:46;30.10;62.50
3790;DHT22;1910;49.042;9.028;2022-07-29T13:57:12;29.90;62.80
3790;DHT22;1910;49.042;9.028;2022-07-29T13:59:39;29.70;63.00
3790;DHT22;1910;49.042;9.028;2022-07-29T14:02:05;29.10;62.30
3790;DHT22;1910;49.042;9.028;2022-07-29T14:04:32;29.20;63.90
3790;DHT22;1910;49.042;9.028;2022-07-29T14:06:58;28.70;64.10
3790;DHT22;1910;49.042;9.028;2022-07-29T14:09:24;28.40;63.90
3790;DHT22;1910;49.042;9.028;2022-07-29T14:11:49;28.40;64.90
3790;DHT22;1910;49.042;9.028;2022-07-29T14:14:16;28.50;65.80
3790;DHT22;1910;49.042;9.028;2022-07-29T14:16:42;28.80;66.00
3790;DHT22;1910;49.042;9.028;2022-07-29T14:19:07;28.90;65.00
3790;DHT22;1910;49.042;9.028;2022-07-29T14:21:33;29.30;63.70
3790;DHT22;1910;49.042;9.028;2022-07-29T14:23:59;28.90;61.90
3790;DHT22;1910;49.042;9.028;2022-07-29T14:26:25;28.40;63.00
3790;DHT22;1910;49.042;9.028;2022-07-29T14:28:50;28.10;63.40
3790;DHT22;1910;49.042;9.028;2022-07-29T14:31:16;28.00;63.90
3790;DHT22;1910;49.042;9.028;2022-07-29T14:33:42;28.10;64.10
3790;DHT22;1910;49.042;9.028;2022-07-29T14:36:08;28.50;64.30
3790;DHT22;1910;49.042;9.028;2022-07-29T14:38:34;28.70;62.60
3790;DHT22;1910;49.042;9.028;2022-07-29T14:41:00;28.40;61.00
3790;DHT22;1910;49.042;9.028;2022-07-29T14:43:26;28.20;61.40
3790;DHT22;1910;49.042;9.028;2022-07-29T14:45:51;28.20;61.30
3790;DHT22;1910;49.042;9.028;2022-07-29T14:48:17;27.80;60.20
3790;DHT22;1910;49.042;9.028;2022-07-29T14:50:42;27.70;61.00
3790;DHT22;1910;49.042;9.028;2022-07-29T14:53:08;27.70;61.30
3790;DHT22;1910;49.042;9.028;2022-07-29T14:55:34;27.80;60.40
3790;DHT22;1910;49.042;9.028;2022-07-29T14:57:59;27.80;61.30
3790;DHT22;1910;49.042;9.028;2022-07-29T15:00:25;27.50;60.30
3790;DHT22;1910;49.042;9.028;2022-07-29T15:02:51;27.40;60.40
3790;DHT22;1910;49.042;9.028;2022-07-29T15:05:16;27.70;62.10
3790;DHT22;1910;49.042;9.028;2022-07-29T15:07:42;28.00;60.70
3790;DHT22;1910;49.042;9.028;2022-07-29T15:10:08;28.00;59.70
3790;DHT22;1910;49.042;9.028;2022-07-29T15:12:34;28.10;59.80
3790;DHT22;1910;49.042;9.028;2022-07-29T15:14:59;28.40;59.30
3790;DHT22;1910;49.042;9.028;2022-07-29T15:17:25;28.00;57.70
3790;DHT22;1910;49.042;9.028;2022-07-29T15:19:50;27.90;58.10
3790;DHT22;1910;49.042;9.028;2022-07-29T15:22:16;27.50;58.50
3790;DHT22;1910;49.042;9.028;2022-07-29T15:24:41;27.60;58.40
3790;DHT22;1910;49.042;9.028;2022-07-29T15:27:07;27.60;58.60
3790;DHT22;1910;49.042;9.028;2022-07-29T15:29:42;28.00;58.00
3790;DHT22;1910;49.042;9.028;2022-07-29T15:32:09;27.80;57.00
3790;DHT22;1910;49.042;9.028;2022-07-29T15:34:35;27.30;56.80
3790;DHT22;1910;49.042;9.028;2022-07-29T15:37:01;27.50;57.90
3790;DHT22;1910;49.042;9.028;2022-07-29T15:39:26;27.00;57.70
3790;DHT22;1910;49.042;9.028;2022-07-29T15:41:52;27.20;59.00
3790;DHT22;1910;49.042;9.028;2022-07-29T15:44:19;27.30;58.30
3790;DHT22;1910;49.042;9.028;2022-07-29T15:46:44;27.60;58.90
3790;DHT22;1910;49.042;9.028;2022-07-29T15:49:29;27.70;58.40
3790;DHT22;1910;49.042;9.028;2022-07-29T15:52:02;27.30;58.10
3790;DHT22;1910;49.042;9.028;2022-07-29T15:54:29;27.20;58.50
3790;DHT22;1910;49.042;9.028;2022-07-29T15:56:55;27.30;58.10
3790;DHT22;1910;49.042;9.028;2022-07-29T15:59:21;27.50;59.00
3790;DHT22;1910;49.042;9.028;2022-07-29T16:01:47;27.70;58.90
3790;DHT22;1910;49.042;9.028;2022-07-29T16:04:13;28.10;58.80
3790;DHT22;1910;49.042;9.028;2022-07-29T16:06:38;27.50;57.80
3790;DHT22;1910;49.042;9.028;2022-07-29T16:09:04;27.50;58.50
3790;DHT22;1910;49.042;9.028;2022-07-29T16:11:30;27.20;58.80
3790;DHT22;1910;49.042;9.028;2022-07-29T16:13:55;27.20;58.10
3790;DHT22;1910;49.042;9.028;2022-07-29T16:16:21;27.20;58.60
3790;DHT22;1910;49.042;9.028;2022-07-29T16:18:46;27.30;58.90
3790;DHT22;1910;49.042;9.028;2022-07-29T16:21:12;27.30;58.80
3790;DHT22;1910;49.042;9.028;2022-07-29T16:23:38;27.50;59.40
3790;DHT22;1910;49.042;9.028;2022-07-29T16:26:04;27.50;58.10
3790;DHT22;1910;49.042;9.028;2022-07-29T16:28:30;27.30;58.40
3790;DHT22;1910;49.042;9.028;2022-07-29T16:30:56;27.60;58.70
3790;DHT22;1910;49.042;9.028;2022-07-29T16:35:49;28.40;57.70
3790;DHT22;1910;49.042;9.028;2022-07-29T16:38:14;28.30;55.90
3790;DHT22;1910;49.042;9.028;2022-07-29T16:40:40;28.20;56.30
3790;DHT22;1910;49.042;9.028;2022-07-29T16:43:06;28.10;56.50
3790;DHT22;1910;49.042;9.028;2022-07-29T16:45:32;28.00;56.80
3790;DHT22;1910;49.042;9.028;2022-07-29T16:47:58;28.00;55.70
3790;DHT22;1910;49.042;9.028;2022-07-29T16:50:23;27.90;55.50
3790;DHT22;1910;49.042;9.028;2022-07-29T16:52:50;28.00;55.30
3790;DHT22;1910;49.042;9.028;2022-07-29T16:55:16;28.00;55.70
3790;DHT22;1910;49.042;9.028;2022-07-29T16:57:41;28.00;55.10
3790;DHT22;1910;49.042;9.028;2022-07-29T17:00:08;28.00;54.40
3790;DHT22;1910;49.042;9.028;2022-07-29T17:02:34;27.90;53.80
3790;DHT22;1910;49.042;9.028;2022-07-29T17:05:00;27.90;53.50
3790;DHT22;1910;49.042;9.028;2022-07-29T17:07:25;28.00;54.10
3790;DHT22;1910;49.042;9.028;2022-07-29T17:09:51;28.00;53.40
3790;DHT22;1910;49.042;9.028;2022-07-29T17:12:16;28.00;53.80
3790;DHT22;1910;49.042;9.028;2022-07-29T17:14:42;27.80;52.70
3790;DHT22;1910;49.042;9.028;2022-07-29T17:17:07;27.60;53.50
3790;DHT22;1910;49.042;9.028;2022-07-29T17:19:34;27.40;53.00
3790;DHT22;1910;49.042;9.028;2022-07-29T17:22:01;27.10;53.00
3790;DHT22;1910;49.042;9.028;2022-07-29T17:24:26;27.00;53.60
3790;DHT22;1910;49.042;9.028;2022-07-29T17:26:52;27.00;53.70
3790;DHT22;1910;49.042;9.028;2022-07-29T17:29:17;26.90;53.40
3790;DHT22;1910;49.042;9.028;2022-07-29T17:31:43;26.80;53.50
3790;DHT22;1910;49.042;9.028;2022-07-29T17:34:09;26.70;53.90
3790;DHT22;1910;49.042;9.028;2022-07-29T17:36:34;26.70;54.70
3790;DHT22;1910;49.042;9.028;2022-07-29T17:39:03;26.80;55.10
3790;DHT22;1910;49.042;9.028;2022-07-29T17:41:30;26.80;55.20
3790;DHT22;1910;49.042;9.028;2022-07-29T17:43:56;26.70;54.60
3790;DHT22;1910;49.042;9.028;2022-07-29T17:46:22;26.80;55.60
3790;DHT22;1910;49.042;9.028;2022-07-29T17:48:50;26.40;54.80
3790;DHT22;1910;49.042;9.028;2022-07-29T17:51:16;26.70;54.80
3790;DHT22;1910;49.042;9.028;2022-07-29T17:53:42;26.70;55.00
3790;DHT22;1910;49.042;9.028;2022-07-29T17:56:07;26.80;55.60
3790;DHT22;1910;49.042;9.028;2022-07-29T17:58:33;26.80;55.50
3790;DHT22;1910;49.042;9.028;2022-07-29T18:00:59;26.70;55.60
3790;DHT22;1910;49.042;9.028;2022-07-29T18:03:24;26.70;56.50
3790;DHT22;1910;49.042;9.028;2022-07-29T18:05:51;26.60;56.10
3790;DHT22;1910;49.042;9.028;2022-07-29T18:08:17;26.50;56.40
3790;DHT22;1910;49.042;9.028;2022-07-29T18:10:43;26.40;56.60
3790;DHT22;1910;49.042;9.028;2022-07-29T18:13:09;26.70;56.70
3790;DHT22;1910;49.042;9.028;2022-07-29T18:15:39;26.90;56.80
3790;DHT22;1910;49.042;9.028;2022-07-29T18:18:05;26.90;56.40
3790;DHT22;1910;49.042;9.028;2022-07-29T18:20:31;26.90;56.70
3790;DHT22;1910;49.042;9.028;2022-07-29T18:22:57;26.90;56.10
3790;DHT22;1910;49.042;9.028;2022-07-29T18:25:23;27.00;56.30
3790;DHT22;1910;49.042;9.028;2022-07-29T18:27:50;27.00;55.70
3790;DHT22;1910;49.042;9.028;2022-07-29T18:30:15;26.90;56.00
3790;DHT22;1910;49.042;9.028;2022-07-29T18:32:41;26.90;56.40
3790;DHT22;1910;49.042;9.028;2022-07-29T18:35:07;26.70;56.10
3790;DHT22;1910;49.042;9.028;2022-07-29T18:37:33;26.50;55.80
3790;DHT22;1910;49.042;9.028;2022-07-29T18:39:59;26.30;55.70
3790;DHT22;1910;49.042;9.028;2022-07-29T18:42:25;26.20;56.30
3790;DHT22;1910;49.042;9.028;2022-07-29T18:44:51;26.20;56.40
3790;DHT22;1910;49.042;9.028;2022-07-29T18:47:16;26.10;57.20
3790;DHT22;1910;49.042;9.028;2022-07-29T18:49:42;26.00;58.50
3790;DHT22;1910;49.042;9.028;2022-07-29T18:52:07;26.00;67.50
3790;DHT22;1910;49.042;9.028;2022-07-29T18:54:33;25.80;74.10
3790;DHT22;1910;49.042;9.028;2022-07-29T18:56:59;25.40;76.70
3790;DHT22;1910;49.042;9.028;2022-07-29T18:59:24;25.10;79.60
3790;DHT22;1910;49.042;9.028;2022-07-29T19:01:51;24.90;82.40
3790;DHT22;1910;49.042;9.028;2022-07-29T19:04:19;24.80;84.80
3790;DHT22;1910;49.042;9.028;2022-07-29T19:06:44;24.60;88.40
3790;DHT22;1910;49.042;9.028;2022-07-29T19:09:10;24.40;90.50
3790;DHT22;1910;49.042;9.028;2022-07-29T19:11:37;24.20;91.90
3790;DHT22;1910;49.042;9.028;2022-07-29T19:14:03;23.90;93.30
3790;DHT22;1910;49.042;9.028;2022-07-29T19:16:29;23.80;94.50
3790;DHT22;1910;49.042;9.028;2022-07-29T19:18:55;23.70;95.20
3790;DHT22;1910;49.042;9.028;2022-07-29T19:21:20;23.40;96.00
3790;DHT22;1910;49.042;9.028;2022-07-29T19:23:47;23.20;95.20
3790;DHT22;1910;49.042;9.028;2022-07-29T19:26:12;23.10;93.80
3790;DHT22;1910;49.042;9.028;2022-07-29T19:28:38;23.00;93.70
3790;DHT22;1910;49.042;9.028;2022-07-29T19:31:03;22.90;94.00
3790;DHT22;1910;49.042;9.028;2022-07-29T19:33:29;22.70;94.30
3790;DHT22;1910;49.042;9.028;2022-07-29T19:35:55;22.70;94.40